createdAt,value
2022-12-28T00:00:34.050Z,100918.00
2022-12-28T00:05:35.684Z,100923.00
2022-12-28T00:11:07.751Z,100922.81
2022-12-28T00:16:03.382Z,100932.88
2022-12-28T00:21:05.796Z,100923.63
2022-12-28T00:26:08.545Z,100932.44
2022-12-28T00:31:10.245Z,100902.88
2022-12-28T00:36:13.720Z,100905.94
2022-12-28T00:41:16.309Z,100909.19
2022-12-28T00:46:17.960Z,100917.34
2022-12-28T00:51:20.013Z,100906.09
2022-12-28T00:56:22.695Z,100906.94
2022-12-28T01:01:25.488Z,100905.56
2022-12-28T01:06:29.532Z,100895.69
2022-12-28T01:11:32.512Z,100897.03
2022-12-28T01:16:36.201Z,100889.06
2022-12-28T01:21:37.821Z,100890.97
2022-12-28T01:26:39.384Z,100883.84
2022-12-28T01:31:41.074Z,100881.63
2022-12-28T01:36:42.708Z,100868.50
2022-12-28T01:41:44.289Z,100862.59
2022-12-28T01:46:53.488Z,100850.28
2022-12-28T01:52:11.837Z,100855.81
2022-12-28T01:57:14.450Z,100858.53
2022-12-28T02:02:16.429Z,100851.72
2022-12-28T02:07:36.691Z,100837.81
2022-12-28T02:12:38.900Z,100827.91
2022-12-28T02:17:41.516Z,100807.09
2022-12-28T02:23:18.458Z,100800.72
2022-12-28T02:28:53.909Z,100788.63
2022-12-28T02:34:32.022Z,100779.59
2022-12-28T02:39:51.485Z,100767.25
2022-12-28T02:45:11.412Z,100759.50
2022-12-28T02:50:15.803Z,100749.50
2022-12-28T02:55:44.511Z,100735.09
2022-12-28T03:00:49.613Z,100726.41
2022-12-28T03:06:33.608Z,100725.66
2022-12-28T03:11:43.531Z,100709.19
2022-12-28T03:17:05.724Z,100706.66
2022-12-28T03:22:27.568Z,100699.13
2022-12-28T03:27:49.063Z,100686.16
2022-12-28T03:32:54.628Z,100682.44
2022-12-28T03:38:02.671Z,100671.09
2022-12-28T03:43:29.525Z,100654.13
2022-12-28T03:48:32.819Z,100644.06
2022-12-28T03:53:43.596Z,100628.13
2022-12-28T03:58:48.559Z,100626.00
2022-12-28T04:03:52.804Z,100620.25
2022-12-28T04:08:54.673Z,100610.00
2022-12-28T04:13:59.489Z,100609.34
2022-12-28T04:19:07.663Z,100602.00
2022-12-28T04:24:09.317Z,100583.06
2022-12-28T04:29:11.731Z,100568.91
2022-12-28T04:34:34.988Z,100562.53
2022-12-28T04:39:55.202Z,100563.59
2022-12-28T04:44:58.666Z,100581.81
2022-12-28T04:50:00.232Z,100562.84
2022-12-28T04:55:01.785Z,100563.97
2022-12-28T05:00:03.951Z,100552.66
2022-12-28T05:05:05.742Z,100535.69
2022-12-28T05:10:07.652Z,100525.56
2022-12-28T05:15:09.689Z,100532.94
2022-12-28T05:20:11.725Z,100536.19
2022-12-28T05:25:13.353Z,100520.44
2022-12-28T05:30:15.025Z,100516.31
2022-12-28T05:35:16.722Z,100493.03
2022-12-28T05:40:18.296Z,100503.16
2022-12-28T05:45:19.928Z,100499.63
2022-12-28T05:50:21.528Z,100499.44
2022-12-28T05:55:23.099Z,100505.63
2022-12-28T06:00:24.674Z,100504.56
2022-12-28T06:05:27.141Z,100508.56
2022-12-28T06:10:28.730Z,100500.31
2022-12-28T06:15:30.296Z,100496.00
2022-12-28T06:20:31.878Z,100472.94
2022-12-28T06:25:33.511Z,100475.75
2022-12-28T06:30:35.103Z,100483.00
2022-12-28T06:35:41.128Z,100470.09
2022-12-28T06:41:13.045Z,100474.41
2022-12-28T06:46:04.954Z,100472.31
2022-12-28T06:51:30.139Z,100456.94
2022-12-28T06:56:33.173Z,100455.34
2022-12-28T07:01:40.038Z,100455.16
2022-12-28T07:06:43.416Z,100460.75
2022-12-28T07:11:45.414Z,100448.56
2022-12-28T07:16:48.089Z,100447.47
2022-12-28T07:21:50.231Z,100439.50
2022-12-28T07:26:51.854Z,100411.34
2022-12-28T07:31:53.432Z,100415.34
2022-12-28T07:36:55.041Z,100402.06
2022-12-28T07:41:56.701Z,100398.44
2022-12-28T07:46:58.392Z,100393.84
2022-12-28T07:52:00.052Z,100396.63
2022-12-28T07:57:01.657Z,100387.22
2022-12-28T08:02:03.442Z,100379.34
2022-12-28T08:07:05.243Z,100379.72
2022-12-28T08:12:07.054Z,100378.16
2022-12-28T08:17:08.692Z,100376.94
2022-12-28T08:22:10.321Z,100377.91
2022-12-28T08:27:13.001Z,100366.41
2022-12-28T08:32:14.613Z,100360.44
2022-12-28T08:37:16.192Z,100348.09
2022-12-28T08:42:17.797Z,100337.91
2022-12-28T08:47:19.392Z,100342.25
2022-12-28T08:52:21.072Z,100332.78
2022-12-28T08:57:22.699Z,100336.34
2022-12-28T09:02:24.429Z,100330.31
2022-12-28T09:07:26.183Z,100317.66
2022-12-28T09:12:27.801Z,100304.00
2022-12-28T09:17:29.346Z,100301.63
2022-12-28T09:22:31.555Z,100293.41
2022-12-28T09:27:33.153Z,100287.44
2022-12-28T09:32:34.775Z,100280.88
2022-12-28T09:37:36.337Z,100283.41
2022-12-28T09:42:39.248Z,100283.97
2022-12-28T09:47:52.162Z,100284.34
2022-12-28T09:53:05.563Z,100275.41
2022-12-28T09:58:14.401Z,100274.56
2022-12-28T10:03:20.386Z,100269.25
2022-12-28T10:08:22.854Z,100257.75
2022-12-28T10:18:50.663Z,100242.63
2022-12-28T10:24:29.770Z,100235.19
2022-12-28T10:29:21.189Z,100236.19
2022-12-28T10:34:22.840Z,100227.81
2022-12-28T10:39:27.163Z,100209.88
2022-12-28T10:44:40.159Z,100203.13
2022-12-28T10:50:02.762Z,100198.66
2022-12-28T10:55:33.593Z,100205.38
2022-12-28T11:00:35.340Z,100192.19
2022-12-28T11:05:37.072Z,100181.78
2022-12-28T11:10:40.354Z,100173.38
2022-12-28T11:15:44.119Z,100170.91
2022-12-28T11:20:52.102Z,100161.25
2022-12-28T11:25:54.015Z,100152.09
2022-12-28T11:30:56.030Z,100138.72
2022-12-28T11:35:59.996Z,100147.28
2022-12-28T11:41:02.181Z,100139.28
2022-12-28T11:46:05.095Z,100132.78
2022-12-28T11:51:14.689Z,100133.91
2022-12-28T11:56:18.488Z,100137.56
2022-12-28T12:01:36.704Z,100130.09
2022-12-28T12:06:44.778Z,100131.34
2022-12-28T12:11:47.899Z,100126.84
2022-12-28T12:16:57.081Z,100110.94
2022-12-28T12:22:13.045Z,100109.13
2022-12-28T12:27:18.576Z,100108.16
2022-12-28T12:32:27.859Z,100106.31
2022-12-28T12:37:51.007Z,100115.31
2022-12-28T12:43:16.654Z,100107.41
2022-12-28T12:48:37.661Z,100095.31
2022-12-28T12:53:58.097Z,100096.69
2022-12-28T12:59:25.705Z,100107.03
2022-12-28T13:04:29.846Z,100104.91
2022-12-28T13:09:33.300Z,100096.22
2022-12-28T13:14:35.545Z,100093.22
2022-12-28T13:19:37.150Z,100094.41
2022-12-28T13:24:45.811Z,100094.72
2022-12-28T13:29:54.253Z,100074.72
2022-12-28T13:34:55.883Z,100074.53
2022-12-28T13:40:15.931Z,100079.47
2022-12-28T13:45:19.687Z,100082.25
2022-12-28T13:50:24.897Z,100081.84
2022-12-28T13:55:36.617Z,100078.44
2022-12-28T14:00:38.941Z,100071.16
2022-12-28T14:05:45.591Z,100070.88
2022-12-28T14:10:47.671Z,100070.75
2022-12-28T14:15:49.919Z,100074.13
2022-12-28T14:20:53.627Z,100077.13
2022-12-28T14:25:58.065Z,100080.91
2022-12-28T14:30:59.830Z,100069.56
2022-12-28T14:36:03.588Z,100067.91
2022-12-28T14:41:05.714Z,100071.06
2022-12-28T14:46:34.750Z,100077.59
2022-12-28T14:51:41.111Z,100074.41
2022-12-28T14:57:06.311Z,100073.78
2022-12-28T15:02:34.224Z,100075.31
2022-12-28T15:07:35.936Z,100065.78
2022-12-28T15:12:38.215Z,100076.78
2022-12-28T15:17:39.810Z,100065.25
2022-12-28T15:22:41.469Z,100062.63
2022-12-28T15:27:43.080Z,100069.56
2022-12-28T15:32:44.993Z,100059.06
2022-12-28T15:37:46.795Z,100063.13
2022-12-28T15:42:48.465Z,100065.41
2022-12-28T15:47:53.270Z,100065.00
2022-12-28T15:52:54.924Z,100066.63
2022-12-28T15:57:56.525Z,100055.78
2022-12-28T16:02:58.310Z,100054.56
2022-12-28T16:08:00.033Z,100055.72
2022-12-28T16:13:01.659Z,100051.22
2022-12-28T16:18:03.443Z,100047.31
2022-12-28T16:23:05.176Z,100044.56
2022-12-28T16:28:06.726Z,100037.78
2022-12-28T16:33:08.301Z,100035.00
2022-12-28T16:38:09.868Z,100035.84
2022-12-28T16:43:12.388Z,100027.44
2022-12-28T16:48:15.748Z,100030.41
2022-12-28T16:53:22.798Z,100024.50
2022-12-28T16:58:26.162Z,100023.06
2022-12-28T17:03:27.802Z,100028.47
2022-12-28T17:08:29.576Z,100027.91
2022-12-28T17:13:31.240Z,100020.31
2022-12-28T17:18:32.937Z,100015.94
2022-12-28T17:23:34.522Z,100018.88
2022-12-28T17:28:36.075Z,100021.28
2022-12-28T17:33:40.041Z,100017.91
2022-12-28T17:38:42.019Z,100004.16
2022-12-28T17:43:51.651Z,100002.47
2022-12-28T17:48:54.321Z,99998.56
2022-12-28T17:53:57.019Z,100004.56
2022-12-28T17:58:59.190Z,99993.47
2022-12-28T18:04:01.278Z,99997.66
2022-12-28T18:09:03.097Z,99994.00
2022-12-28T18:14:04.869Z,99991.63
2022-12-28T18:19:06.452Z,99991.19
2022-12-28T18:24:11.864Z,99994.41
2022-12-28T18:29:13.449Z,99978.53
2022-12-28T18:34:15.161Z,99974.88
2022-12-28T18:39:16.792Z,99978.66
2022-12-28T18:44:18.853Z,99977.97
2022-12-28T18:49:21.616Z,99981.94
2022-12-28T18:54:23.303Z,99994.69
2022-12-28T18:59:25.039Z,99979.66
2022-12-28T19:04:26.916Z,99978.06
2022-12-28T19:09:28.698Z,99980.75
2022-12-28T19:14:30.311Z,99974.03
2022-12-28T19:19:31.845Z,99969.47
2022-12-28T19:24:33.416Z,99944.44
2022-12-28T19:29:35.082Z,99932.53
2022-12-28T19:34:36.694Z,99925.66
2022-12-28T19:39:38.293Z,99905.81
2022-12-28T19:44:40.836Z,99900.56
2022-12-28T19:49:42.423Z,99904.84
2022-12-28T19:54:44.022Z,99905.00
2022-12-28T19:59:45.606Z,99902.25
2022-12-28T20:04:47.171Z,99899.03
2022-12-28T20:09:51.821Z,99892.41
2022-12-28T20:14:53.468Z,99897.53
2022-12-28T20:19:55.065Z,99893.78
2022-12-28T20:24:56.631Z,99882.47
2022-12-28T20:29:58.481Z,99870.34
2022-12-28T20:35:00.129Z,99869.13
2022-12-28T20:40:02.295Z,99866.06
2022-12-28T20:45:04.437Z,99869.66
2022-12-28T20:50:06.662Z,99866.78
2022-12-28T20:55:09.751Z,99863.94
2022-12-28T21:00:12.025Z,99864.47
2022-12-28T21:05:13.924Z,99851.75
2022-12-28T21:10:15.608Z,99836.09
2022-12-28T21:15:17.320Z,99842.03
2022-12-28T21:20:18.949Z,99832.66
2022-12-28T21:25:20.626Z,99806.31
2022-12-28T21:30:22.191Z,99810.22
2022-12-28T21:35:27.741Z,99797.00
2022-12-28T21:40:32.086Z,99789.59
2022-12-28T21:45:33.787Z,99778.63
2022-12-28T21:50:35.431Z,99775.97
2022-12-28T21:55:42.543Z,99772.50
2022-12-28T22:01:02.903Z,99758.47
2022-12-28T22:06:07.303Z,99753.19
2022-12-28T22:11:30.030Z,99736.13
2022-12-28T22:16:33.328Z,99719.78
2022-12-28T22:21:36.030Z,99718.94
2022-12-28T22:26:37.657Z,99711.16
2022-12-28T22:31:40.207Z,99701.31
2022-12-28T22:36:41.811Z,99686.41
2022-12-28T22:41:43.476Z,99692.47
2022-12-28T22:46:45.144Z,99682.72
2022-12-28T22:51:47.586Z,99672.44
2022-12-28T22:56:49.207Z,99671.78
2022-12-28T23:01:51.304Z,99665.41
2022-12-28T23:06:54.024Z,99659.09
2022-12-28T23:11:58.088Z,99653.72
2022-12-28T23:17:00.180Z,99638.72
2022-12-28T23:22:21.805Z,99628.34
2022-12-28T23:27:24.462Z,99622.16
2022-12-28T23:32:26.038Z,99614.50
2022-12-28T23:37:27.995Z,99621.66
2022-12-28T23:42:29.735Z,99625.69
2022-12-28T23:47:31.722Z,99608.66
2022-12-28T23:52:33.761Z,99609.66
2022-12-28T23:57:35.466Z,99590.00
